createdAt,value
2023-05-09T05:01:11.653Z,36.12
2023-05-09T05:02:11.501Z,36.09
2023-05-09T05:03:11.520Z,36.07
2023-05-09T05:04:11.570Z,36.12
2023-05-09T05:05:12.585Z,36.12
2023-05-09T05:06:11.657Z,36.05
2023-05-09T05:07:11.645Z,36.12
2023-05-09T05:08:11.670Z,36.11
2023-05-09T05:09:11.685Z,36.07
2023-05-09T05:10:11.709Z,36.09
2023-05-09T05:11:11.759Z,36.09
2023-05-09T05:12:11.833Z,36.08
2023-05-09T05:13:11.883Z,36.08
2023-05-09T05:14:11.900Z,36.00
2023-05-09T05:15:12.043Z,36.03
2023-05-09T05:16:12.065Z,35.99
2023-05-09T05:17:12.136Z,35.99
2023-05-09T05:18:12.088Z,35.96
2023-05-09T05:19:12.101Z,35.99
2023-05-09T05:20:12.153Z,35.96
2023-05-09T05:21:12.188Z,35.98
2023-05-09T05:22:12.293Z,35.99
2023-05-09T05:23:12.261Z,35.91
2023-05-09T05:24:12.280Z,35.96
2023-05-09T05:25:12.438Z,35.96
2023-05-09T05:26:12.306Z,35.94
2023-05-09T05:27:12.400Z,35.94
2023-05-09T05:28:12.436Z,35.94
2023-05-09T05:29:12.406Z,35.91
2023-05-09T05:30:12.463Z,35.95
2023-05-09T05:31:12.543Z,35.97
2023-05-09T05:32:12.499Z,35.95
2023-05-09T05:33:12.614Z,35.89
2023-05-09T05:34:12.584Z,35.93
2023-05-09T05:35:12.795Z,35.92
2023-05-09T05:36:12.615Z,35.95
2023-05-09T05:37:12.645Z,35.89
2023-05-09T05:38:12.629Z,35.87
2023-05-09T05:39:12.650Z,35.91
2023-05-09T05:40:12.893Z,35.90
2023-05-09T05:41:12.685Z,35.92
2023-05-09T05:42:12.726Z,35.90
2023-05-09T05:43:12.890Z,35.93
2023-05-09T05:44:12.772Z,35.99
2023-05-09T05:45:12.906Z,35.96
2023-05-09T05:46:12.899Z,35.97
2023-05-09T05:47:12.842Z,36.13
2023-05-09T05:48:12.845Z,36.01
2023-05-09T05:49:12.953Z,36.08
2023-05-09T07:40:12.657Z,45.99
2023-05-09T07:41:12.344Z,45.21
2023-05-09T07:42:12.331Z,44.21
2023-05-09T07:43:12.307Z,43.88
2023-05-09T07:44:12.319Z,43.50
2023-05-09T07:45:12.514Z,43.18
2023-05-09T07:46:12.347Z,43.09
2023-05-09T07:47:12.268Z,42.73
2023-05-09T07:48:12.347Z,42.46
2023-05-09T07:49:12.288Z,42.38
2023-05-09T07:50:12.268Z,42.17
2023-05-09T07:51:12.262Z,41.59
2023-05-09T07:52:12.246Z,41.43
2023-05-09T07:53:12.265Z,41.18
2023-05-09T07:54:12.216Z,41.11
2023-05-09T07:55:12.316Z,41.09
2023-05-09T07:56:12.328Z,40.71
2023-05-09T07:57:12.222Z,40.66
2023-05-09T07:58:12.225Z,40.61
2023-05-09T07:59:12.257Z,40.46
2023-05-09T08:00:12.184Z,40.21
2023-05-09T08:01:12.169Z,40.00
2023-05-09T08:02:12.211Z,39.86
2023-05-09T08:03:12.267Z,39.64
2023-05-09T08:04:12.241Z,39.40
2023-05-09T08:05:12.205Z,39.27
2023-05-09T08:06:12.200Z,39.12
2023-05-09T08:07:12.159Z,39.00
2023-05-09T08:08:12.150Z,39.01
2023-05-09T08:09:12.127Z,38.91
2023-05-09T08:10:12.125Z,38.78
2023-05-09T08:11:12.128Z,38.77
2023-05-09T08:12:12.262Z,38.71
2023-05-09T08:13:12.187Z,38.61
2023-05-09T08:14:12.802Z,38.57
2023-05-09T08:15:12.206Z,38.55
2023-05-09T08:16:12.152Z,38.44
2023-05-09T08:17:12.098Z,38.31
2023-05-09T08:18:12.044Z,38.19
2023-05-09T08:19:12.065Z,38.12
2023-05-09T08:20:12.043Z,38.01
2023-05-09T08:21:12.096Z,37.86
2023-05-09T08:22:12.043Z,37.77
2023-05-09T08:23:12.067Z,37.69
2023-05-09T08:24:12.036Z,37.72
2023-05-09T08:25:12.053Z,37.58
2023-05-09T08:26:11.996Z,37.60
2023-05-09T08:27:12.018Z,37.57
2023-05-09T08:28:12.153Z,37.71
2023-05-09T08:29:11.985Z,38.76
2023-05-09T08:30:11.966Z,38.72
2023-05-09T08:31:12.021Z,38.40
2023-05-09T08:32:12.026Z,39.76
2023-05-09T08:33:12.090Z,39.94
2023-05-09T08:34:11.980Z,39.57
2023-05-09T08:35:11.975Z,39.57
2023-05-09T08:36:11.933Z,39.72
2023-05-09T08:37:14.451Z,39.74
2023-05-09T08:38:11.963Z,39.67
2023-05-09T08:39:11.912Z,39.47
2023-05-09T08:40:11.960Z,39.69
2023-05-09T08:41:11.903Z,39.86
2023-05-09T08:42:11.934Z,39.90
2023-05-09T08:43:11.934Z,40.01
2023-05-09T08:44:12.034Z,39.96
2023-05-09T08:45:11.889Z,40.02
2023-05-09T08:46:11.928Z,40.03
2023-05-09T08:47:11.882Z,40.08
2023-05-09T08:48:11.882Z,40.67
2023-05-09T08:49:11.871Z,40.61
2023-05-09T08:50:12.055Z,40.70
2023-05-09T08:51:11.840Z,40.73
2023-05-09T08:52:11.855Z,40.61
2023-05-09T08:53:11.828Z,40.41
2023-05-09T08:54:11.808Z,40.95
2023-05-09T08:55:11.856Z,40.98
2023-05-09T08:56:11.825Z,40.98
2023-05-09T08:57:11.793Z,40.97
2023-05-09T08:58:11.811Z,40.86
2023-05-09T08:59:11.791Z,40.72
2023-05-09T09:00:11.887Z,40.81
2023-05-09T09:01:11.793Z,40.87
2023-05-09T09:02:11.839Z,40.99
2023-05-09T09:03:11.881Z,40.92
2023-05-09T09:04:11.747Z,40.89
2023-05-09T09:05:23.855Z,40.91
2023-05-09T09:06:12.727Z,41.16
2023-05-09T09:07:11.756Z,40.73
2023-05-09T09:08:11.737Z,40.53
2023-05-09T09:09:11.736Z,40.23
2023-05-09T09:10:11.709Z,40.13
2023-05-09T09:11:11.705Z,40.17
2023-05-09T09:12:11.708Z,39.69
2023-05-09T09:13:11.729Z,40.03
2023-05-09T09:14:11.659Z,40.58
2023-05-09T09:15:11.660Z,40.28
2023-05-09T09:16:11.766Z,40.03
2023-05-09T09:17:11.687Z,39.93
2023-05-09T09:18:11.734Z,39.69
2023-05-09T09:19:11.652Z,40.08
2023-05-09T09:20:11.667Z,39.97
2023-05-09T09:21:11.641Z,39.70
2023-05-09T09:22:11.622Z,39.63
2023-05-09T09:23:11.582Z,39.34
2023-05-09T09:24:11.607Z,39.14
2023-05-09T09:25:11.605Z,39.10
2023-05-09T09:26:11.583Z,38.96
2023-05-09T09:27:11.610Z,38.23
2023-05-09T09:28:11.576Z,38.42
2023-05-09T09:29:11.559Z,37.85
2023-05-09T09:30:11.565Z,38.28
2023-05-09T09:31:11.599Z,38.02
2023-05-09T09:32:11.774Z,37.82
2023-05-09T09:33:11.694Z,37.50
2023-05-09T09:34:11.699Z,37.35
2023-05-09T09:35:11.765Z,36.95
2023-05-09T09:36:11.821Z,37.09
2023-05-09T09:37:11.836Z,36.95
2023-05-09T09:38:11.894Z,36.98
2023-05-09T09:39:11.966Z,37.03
2023-05-09T09:40:12.282Z,37.00
2023-05-09T09:41:12.061Z,36.94
2023-05-09T09:42:12.104Z,36.53
2023-05-09T09:43:12.176Z,36.26
2023-05-09T09:44:12.216Z,36.50
2023-05-09T09:45:12.277Z,36.10
2023-05-09T09:46:12.374Z,36.14
2023-05-09T09:47:12.398Z,36.31
2023-05-09T09:48:12.597Z,36.25
2023-05-09T09:49:12.484Z,36.33
2023-05-09T09:50:12.705Z,36.15
2023-05-09T09:51:12.611Z,35.77
2023-05-09T09:52:12.669Z,35.71
2023-05-09T09:53:12.756Z,35.47
2023-05-09T09:54:12.680Z,35.49
2023-05-09T09:55:12.695Z,35.52
2023-05-09T09:56:12.700Z,35.74
2023-05-09T09:57:12.714Z,35.74
2023-05-09T09:58:12.746Z,35.80
2023-05-09T09:59:12.723Z,36.07
2023-05-09T10:00:12.890Z,36.14
2023-05-09T10:01:12.754Z,36.49
2023-05-09T10:02:12.746Z,36.38
2023-05-09T10:03:12.877Z,36.63
2023-05-09T10:04:12.841Z,36.58
2023-05-09T10:05:12.732Z,36.67
2023-05-09T10:06:12.750Z,36.44
2023-05-09T10:07:14.926Z,36.87
2023-05-09T10:08:12.807Z,36.65
2023-05-09T10:09:12.817Z,36.63
2023-05-09T10:10:13.252Z,36.75
2023-05-09T10:11:12.832Z,36.64
2023-05-09T10:12:12.797Z,35.99
2023-05-09T10:13:12.940Z,35.93
2023-05-09T10:14:12.885Z,36.11
2023-05-09T10:15:12.850Z,36.29
2023-05-09T10:16:13.122Z,36.47
2023-05-09T10:17:12.917Z,36.39
2023-05-09T10:18:12.983Z,36.78
2023-05-09T10:19:12.911Z,36.91
2023-05-09T10:20:13.414Z,36.71
2023-05-09T10:21:13.115Z,36.96
2023-05-09T10:22:13.117Z,37.05
2023-05-09T10:23:13.171Z,37.35
2023-05-09T10:24:13.253Z,37.35
2023-05-09T10:25:13.582Z,37.03
2023-05-09T10:26:13.375Z,36.52
2023-05-09T10:27:13.462Z,36.24
2023-05-09T10:28:13.480Z,36.81
2023-05-09T10:29:13.540Z,36.87
2023-05-09T10:30:13.549Z,36.90
2023-05-09T10:31:13.585Z,36.64
2023-05-09T10:32:13.584Z,36.43
2023-05-09T10:33:13.622Z,36.29
2023-05-09T10:34:13.647Z,36.00
2023-05-09T10:35:13.923Z,35.40
2023-05-09T10:36:13.828Z,35.25
2023-05-09T10:37:13.727Z,35.65
2023-05-09T10:38:13.741Z,35.62
2023-05-09T10:39:13.822Z,35.68
2023-05-09T10:40:13.762Z,36.22
2023-05-09T10:41:13.753Z,35.78
2023-05-09T10:42:13.757Z,35.44
2023-05-09T10:43:13.757Z,35.71
2023-05-09T10:44:13.772Z,35.87
2023-05-09T10:45:14.107Z,35.86
2023-05-09T10:46:13.813Z,35.91
2023-05-09T10:47:13.780Z,35.30
2023-05-09T10:48:13.822Z,34.49
2023-05-09T10:49:13.816Z,34.10
2023-05-09T10:50:13.834Z,34.53
2023-05-09T10:51:13.843Z,34.57
2023-05-09T10:52:13.923Z,34.70
2023-05-09T10:53:13.847Z,34.65
2023-05-09T10:54:13.860Z,34.76
2023-05-09T10:55:13.988Z,34.78
2023-05-09T10:56:13.903Z,34.79
2023-05-09T10:57:13.964Z,34.74
2023-05-09T10:58:13.994Z,34.85
2023-05-09T10:59:14.068Z,34.92
2023-05-09T11:00:14.135Z,34.90
2023-05-09T11:01:14.229Z,34.87
2023-05-09T11:02:14.231Z,34.84
2023-05-09T11:03:14.339Z,34.61
2023-05-09T11:04:14.514Z,34.33
2023-05-09T11:05:14.566Z,33.83
2023-05-09T11:06:14.478Z,33.97
2023-05-09T11:07:14.820Z,33.27
2023-05-09T11:08:14.678Z,33.32
2023-05-09T11:09:14.656Z,33.83
2023-05-09T11:10:14.686Z,33.71
2023-05-09T11:11:14.757Z,34.17
2023-05-09T11:12:14.829Z,34.27
2023-05-09T11:13:14.924Z,34.30
2023-05-09T11:14:14.921Z,34.29
2023-05-09T11:15:15.175Z,34.36
2023-05-09T11:16:15.078Z,34.55
2023-05-09T11:17:15.113Z,34.67
2023-05-09T11:18:15.306Z,35.00
2023-05-09T11:19:15.216Z,35.03
2023-05-09T11:20:15.332Z,35.03
2023-05-09T11:21:15.334Z,35.07
2023-05-09T11:22:15.377Z,34.97
2023-05-09T11:23:15.396Z,35.03
2023-05-09T11:24:15.521Z,35.15
2023-05-09T11:25:15.657Z,35.19
2023-05-09T11:26:15.510Z,35.22
2023-05-09T11:27:15.542Z,35.33
2023-05-09T11:28:15.546Z,35.33
2023-05-09T11:29:15.553Z,35.24
2023-05-09T11:30:15.652Z,35.28
2023-05-09T11:31:15.556Z,35.27
2023-05-09T11:32:15.841Z,35.27
2023-05-09T11:33:15.591Z,35.31
2023-05-09T11:34:15.582Z,35.35
2023-05-09T11:35:15.944Z,35.41
2023-05-09T11:36:15.638Z,35.40
2023-05-09T11:37:15.592Z,35.48
2023-05-09T11:38:15.605Z,35.43
2023-05-09T11:39:15.592Z,35.55
2023-05-09T11:40:15.749Z,35.44
2023-05-09T11:41:15.593Z,35.26
2023-05-09T11:42:15.590Z,35.16
2023-05-09T11:43:15.577Z,35.20
2023-05-09T11:44:15.603Z,34.70
2023-05-09T11:45:15.724Z,34.78
2023-05-09T11:46:15.630Z,35.04
2023-05-09T11:47:15.574Z,35.11
2023-05-09T11:48:15.581Z,35.07
2023-05-09T11:49:15.600Z,35.20
2023-05-09T11:50:15.638Z,35.16
2023-05-09T11:51:15.577Z,35.14
2023-05-09T11:52:15.599Z,35.07
2023-05-09T11:53:15.553Z,34.98
2023-05-09T11:54:15.638Z,35.06
2023-05-09T11:55:15.753Z,35.12
2023-05-09T11:56:15.656Z,35.06
2023-05-09T11:57:15.580Z,34.97
2023-05-09T11:58:15.597Z,34.87
2023-05-09T11:59:15.672Z,34.93
2023-05-09T12:00:15.787Z,34.92
2023-05-09T12:01:15.683Z,34.93
2023-05-09T12:02:15.720Z,34.92
2023-05-09T12:03:15.777Z,34.92
2023-05-09T12:04:15.729Z,35.00
2023-05-09T12:05:15.956Z,35.20
2023-05-09T12:06:15.688Z,35.20
2023-05-09T12:07:15.722Z,35.09
2023-05-09T12:08:15.744Z,35.01
2023-05-09T12:09:15.788Z,34.43
2023-05-09T12:10:15.858Z,33.70
2023-05-09T12:11:15.851Z,34.30
2023-05-09T12:12:15.940Z,33.98
2023-05-09T12:13:15.957Z,33.84
2023-05-09T12:14:15.899Z,33.51
2023-05-09T12:15:16.271Z,33.12
2023-05-09T12:16:15.972Z,33.29
2023-05-09T12:17:15.974Z,33.26
2023-05-09T12:18:15.956Z,32.34
2023-05-09T12:19:15.941Z,32.14
2023-05-09T12:20:16.008Z,31.87
2023-05-09T12:21:15.992Z,31.96
2023-05-09T12:22:15.939Z,31.74
2023-05-09T12:23:15.941Z,31.90
2023-05-09T12:24:15.912Z,31.52
2023-05-09T12:25:16.125Z,31.36
2023-05-09T12:26:15.951Z,31.52
2023-05-09T12:27:15.954Z,31.28
2023-05-09T12:28:16.036Z,31.17
2023-05-09T12:29:15.942Z,31.12
2023-05-09T12:30:16.009Z,31.01
2023-05-09T12:31:16.028Z,30.76
2023-05-09T12:32:15.987Z,30.87
2023-05-09T12:33:15.952Z,30.79
2023-05-09T12:34:15.969Z,30.82
2023-05-09T12:35:16.146Z,30.54
2023-05-09T12:36:15.949Z,30.60
2023-05-09T12:37:15.933Z,30.53
2023-05-09T12:38:15.969Z,30.35
2023-05-09T12:39:15.943Z,30.43
2023-05-09T12:40:15.997Z,30.44
2023-05-09T12:41:30.905Z,30.41
2023-05-09T12:42:16.973Z,30.53
2023-05-09T12:43:15.931Z,30.46
2023-05-09T12:44:16.041Z,30.37
2023-05-09T12:45:16.103Z,30.34
2023-05-09T12:46:15.960Z,30.31
2023-05-09T12:47:15.968Z,30.31
2023-05-09T12:48:15.909Z,30.25
2023-05-09T12:49:15.916Z,30.11
2023-05-09T12:50:15.928Z,30.05
2023-05-09T12:51:15.887Z,30.03
2023-05-09T12:52:15.900Z,29.99
2023-05-09T12:53:15.903Z,29.98
2023-05-09T12:54:15.876Z,29.80
2023-05-09T12:55:16.121Z,29.79
2023-05-09T12:56:15.874Z,29.86
2023-05-09T12:57:15.859Z,29.75
2023-05-09T12:58:15.846Z,29.69
2023-05-09T12:59:15.835Z,29.65
2023-05-09T13:00:15.877Z,29.72
2023-05-09T13:01:16.022Z,29.57
2023-05-09T13:02:16.072Z,29.66
2023-05-09T13:03:16.106Z,29.62
2023-05-09T13:04:16.118Z,29.63
2023-05-09T13:05:16.433Z,29.69
2023-05-09T13:06:16.261Z,29.54
2023-05-09T13:07:16.295Z,29.54
2023-05-09T13:08:16.346Z,29.44
2023-05-09T13:09:16.398Z,29.41
2023-05-09T13:10:16.435Z,29.33
2023-05-09T13:11:17.285Z,29.28
2023-05-09T13:12:16.557Z,29.26
2023-05-09T13:13:16.660Z,29.21
2023-05-09T13:14:16.667Z,29.09
2023-05-09T13:15:17.220Z,29.00
2023-05-09T13:16:17.979Z,28.86
2023-05-09T13:17:16.896Z,28.99
2023-05-09T13:18:16.925Z,28.92
2023-05-09T13:19:16.981Z,28.82
2023-05-09T13:20:17.306Z,28.85
2023-05-09T13:21:17.110Z,28.70
2023-05-09T13:22:17.156Z,28.60
2023-05-09T13:23:17.231Z,28.53
2023-05-09T13:24:17.311Z,28.51
2023-05-09T13:25:17.363Z,28.48
2023-05-09T13:26:17.442Z,28.26
2023-05-09T13:27:17.495Z,28.37
2023-05-09T13:28:17.554Z,28.34
2023-05-09T13:29:17.628Z,28.43
2023-05-09T13:30:18.160Z,28.35
2023-05-09T13:31:17.872Z,28.43
2023-05-09T13:32:17.893Z,28.22
2023-05-09T13:33:25.886Z,28.22
2023-05-09T13:34:18.858Z,28.15
2023-05-09T13:35:17.907Z,28.09
2023-05-09T13:36:17.858Z,28.24
2023-05-09T13:37:17.843Z,28.22
2023-05-09T13:38:17.843Z,28.20
2023-05-09T13:39:17.825Z,28.10
2023-05-09T13:40:17.932Z,28.10
2023-05-09T13:41:17.834Z,28.09
2023-05-09T13:42:19.172Z,28.14
2023-05-09T13:43:17.911Z,28.02
2023-05-09T13:44:17.924Z,27.95
2023-05-09T13:45:17.969Z,27.97
2023-05-09T13:46:18.114Z,27.97
2023-05-09T13:47:18.086Z,27.78
2023-05-09T13:48:18.263Z,27.78
2023-05-09T13:49:18.211Z,27.78
2023-05-09T13:50:18.559Z,27.76
2023-05-09T13:51:18.297Z,27.88
2023-05-09T13:52:18.377Z,27.68
2023-05-09T13:53:18.408Z,27.28
2023-05-09T13:54:18.471Z,27.97
2023-05-09T13:55:18.557Z,28.36
2023-05-09T13:56:18.573Z,28.41
2023-05-09T13:57:18.628Z,28.42
2023-05-09T13:58:18.683Z,28.02
2023-05-09T13:59:18.766Z,28.02
2023-05-09T14:00:18.986Z,27.87
2023-05-09T14:01:18.952Z,28.17
2023-05-09T14:02:18.930Z,28.12
2023-05-09T14:03:19.015Z,28.62
2023-05-09T14:04:19.000Z,28.47
2023-05-09T14:05:19.029Z,29.48
2023-05-09T14:06:19.128Z,28.89
2023-05-09T14:07:19.158Z,28.72
2023-05-09T14:08:19.225Z,28.70
2023-05-09T14:09:19.273Z,28.69
2023-05-09T14:10:19.492Z,28.73
2023-05-09T14:11:19.392Z,28.64
2023-05-09T14:12:19.407Z,28.69
2023-05-09T14:13:19.549Z,28.68
2023-05-09T14:14:19.519Z,28.70
2023-05-09T14:15:19.572Z,28.73
2023-05-09T14:16:19.668Z,28.79
2023-05-09T14:17:19.724Z,28.79
2023-05-09T14:18:21.138Z,28.75
2023-05-09T14:19:19.774Z,28.64
2023-05-09T14:20:19.954Z,28.71
2023-05-09T14:21:19.865Z,28.75
2023-05-09T14:22:20.023Z,28.71
2023-05-09T14:23:19.975Z,28.74
2023-05-09T14:24:19.984Z,28.77
2023-05-09T14:25:20.050Z,28.71
2023-05-09T14:26:20.094Z,28.77
2023-05-09T14:27:20.117Z,28.75
2023-05-09T14:28:20.170Z,28.73
2023-05-09T14:29:20.190Z,28.75
2023-05-09T14:30:20.266Z,28.78
2023-05-09T14:31:20.294Z,28.76
2023-05-09T14:32:20.275Z,28.81
2023-05-09T14:33:20.304Z,28.77
2023-05-09T14:34:20.350Z,28.78
2023-05-09T14:35:20.413Z,28.88
2023-05-09T14:36:20.495Z,28.85
2023-05-09T14:37:20.427Z,28.92
2023-05-09T14:38:20.434Z,28.88
2023-05-09T14:39:20.429Z,29.03
2023-05-09T14:40:20.519Z,29.06
2023-05-09T14:41:21.551Z,29.26
2023-05-09T14:42:20.502Z,29.37
2023-05-09T14:43:20.516Z,29.42
2023-05-09T14:44:20.520Z,29.40
2023-05-09T14:45:20.604Z,29.46
2023-05-09T14:46:20.598Z,29.48
2023-05-09T14:47:20.584Z,29.50
2023-05-09T14:48:20.565Z,29.53
2023-05-09T14:49:20.591Z,29.58
2023-05-09T14:50:20.559Z,29.51
2023-05-09T14:51:20.589Z,29.55
2023-05-09T14:52:20.684Z,29.51
2023-05-09T14:53:20.574Z,29.59
2023-05-09T14:54:20.612Z,29.58
2023-05-09T14:55:20.605Z,29.59
2023-05-09T14:56:20.592Z,29.55
2023-05-09T14:57:20.613Z,29.60
2023-05-09T14:58:20.632Z,29.61
2023-05-09T14:59:20.637Z,29.63
2023-05-09T15:00:22.302Z,29.63
2023-05-09T15:01:20.613Z,29.70
2023-05-09T15:02:20.629Z,29.60
2023-05-09T15:03:20.627Z,29.63
2023-05-09T15:04:20.652Z,29.60
2023-05-09T15:05:20.679Z,29.66
2023-05-09T15:06:20.625Z,29.69
2023-05-09T15:07:20.647Z,29.65
2023-05-09T15:08:20.732Z,29.64
2023-05-09T15:09:20.684Z,29.75
2023-05-09T15:10:20.656Z,29.66
2023-05-09T15:11:20.640Z,29.72
2023-05-09T15:12:20.690Z,29.78
2023-05-09T15:13:20.773Z,29.78
2023-05-09T15:14:20.676Z,29.81
2023-05-09T15:15:20.658Z,29.75
2023-05-09T15:16:20.677Z,29.83
2023-05-09T15:17:20.639Z,29.74
2023-05-09T15:18:20.645Z,29.80
2023-05-09T15:19:20.654Z,29.78
2023-05-09T15:20:20.645Z,29.79
2023-05-09T15:21:20.654Z,29.83
2023-05-09T15:22:20.619Z,29.80
2023-05-09T15:23:20.685Z,29.84
2023-05-09T15:24:20.706Z,29.87
2023-05-09T15:25:20.632Z,29.80
2023-05-09T15:26:20.621Z,29.90
2023-05-09T15:27:20.616Z,29.88
2023-05-09T15:28:20.605Z,29.84
2023-05-09T15:29:20.625Z,29.91
2023-05-09T15:30:20.585Z,29.92
2023-05-09T15:31:20.669Z,29.91
2023-05-09T15:32:20.612Z,29.87
2023-05-09T15:33:20.617Z,29.98
2023-05-09T15:34:20.577Z,29.93
2023-05-09T15:35:20.607Z,29.99
2023-05-09T15:36:20.571Z,29.93
2023-05-09T15:37:20.583Z,30.00
2023-05-09T15:38:20.594Z,30.02
2023-05-09T15:39:20.610Z,30.03
2023-05-09T15:40:20.661Z,29.99
2023-05-09T15:41:20.565Z,29.97
2023-05-09T15:42:20.579Z,30.01
2023-05-09T15:43:20.556Z,29.98
2023-05-09T15:44:20.557Z,30.02
2023-05-09T15:45:20.569Z,30.04
2023-05-09T15:46:20.642Z,30.08
2023-05-09T15:47:20.634Z,30.01
2023-05-09T15:48:20.586Z,30.05
2023-05-09T15:49:20.586Z,30.05
2023-05-09T15:50:20.606Z,30.09
2023-05-09T15:51:20.597Z,30.07
2023-05-09T15:52:20.582Z,30.08
2023-05-09T15:53:20.626Z,30.12
2023-05-09T15:54:20.612Z,30.12
2023-05-09T15:55:20.694Z,30.15
2023-05-09T15:56:20.720Z,30.11
2023-05-09T15:57:20.614Z,30.11
2023-05-09T15:58:20.633Z,30.12
2023-05-09T15:59:20.629Z,30.14
2023-05-09T16:00:20.632Z,30.14
2023-05-09T16:01:20.689Z,30.17
2023-05-09T16:02:20.668Z,30.20
2023-05-09T16:03:20.775Z,30.15
2023-05-09T16:04:20.665Z,30.17
2023-05-09T16:05:20.684Z,30.20
2023-05-09T16:06:20.656Z,30.19
2023-05-09T16:07:20.892Z,30.20
2023-05-09T16:08:20.665Z,30.18
2023-05-09T16:09:20.685Z,30.21
2023-05-09T16:10:20.640Z,30.22
2023-05-09T16:11:20.663Z,30.22
2023-05-09T16:12:20.753Z,30.22
2023-05-09T16:13:20.689Z,30.24
2023-05-09T16:14:20.713Z,30.27
2023-05-09T16:15:20.669Z,30.28
2023-05-09T16:16:20.720Z,30.30
2023-05-09T16:17:20.680Z,30.22
2023-05-09T16:18:20.704Z,30.27
2023-05-09T16:19:20.701Z,30.31
2023-05-09T16:20:20.686Z,30.30
2023-05-09T16:21:20.732Z,30.30
2023-05-09T16:22:20.694Z,30.30
2023-05-09T16:23:20.738Z,30.31
2023-05-09T16:24:20.710Z,30.30
2023-05-09T16:25:20.698Z,30.34
2023-05-09T16:26:20.749Z,30.37
2023-05-09T16:27:20.727Z,30.32
2023-05-09T16:28:20.808Z,30.31
2023-05-09T16:29:20.759Z,30.34
2023-05-09T16:30:20.745Z,30.40
2023-05-09T16:31:20.822Z,30.41
2023-05-09T16:32:20.768Z,30.40
2023-05-09T16:33:20.791Z,30.45
2023-05-09T16:34:20.768Z,30.36
2023-05-09T16:35:20.802Z,30.42
2023-05-09T16:36:20.832Z,30.40
2023-05-09T16:37:20.847Z,30.38
2023-05-09T16:38:20.829Z,30.42
2023-05-09T16:39:20.832Z,30.45
2023-05-09T16:40:20.826Z,30.38
2023-05-09T16:41:20.844Z,30.45
2023-05-09T16:42:20.873Z,30.44
2023-05-09T16:43:20.863Z,30.44
2023-05-09T16:44:20.980Z,30.47
2023-05-09T16:45:20.958Z,30.42
2023-05-09T16:46:20.950Z,30.50
2023-05-09T16:47:20.929Z,30.47
2023-05-09T16:48:20.914Z,30.48
2023-05-09T16:49:20.933Z,30.48
2023-05-09T16:50:20.927Z,30.50
2023-05-09T16:51:20.995Z,30.48
2023-05-09T16:52:21.006Z,30.50
2023-05-09T16:53:20.989Z,30.51
2023-05-09T16:54:21.013Z,30.51
2023-05-09T16:55:21.027Z,30.55
2023-05-09T16:56:21.026Z,30.54
2023-05-09T16:57:21.030Z,30.55
2023-05-09T16:58:21.119Z,30.52
2023-05-09T16:59:21.087Z,30.54
2023-05-09T17:00:21.091Z,30.55
